Time;durP1;ratioP1;P1;durP2;ratioP2;P2;SDS_P1;SDS_P2;PMS_P1;PMS_P2;Temp;Humidity;BMP_temperature;BMP_pressure;BME280_temperature;BME280_humidity;BME280_pressure;Samples;Min_cycle;Max_cycle;Signal;HPM_P1;HPM_P2
2023/08/04 00:01:42;;;;;;;1.95;0.70;;;;;;;14.92;51.22;100712.25;4991074;28;20411;-70
2023/08/04 00:04:08;;;;;;;3.38;0.70;;;;;;;14.93;50.98;100713.13;4988772;28;20418;-70
2023/08/04 00:06:33;;;;;;;4.35;0.73;;;;;;;15.01;51.09;100710.84;4992054;28;20029;-70
2023/08/04 00:08:58;;;;;;;2.78;0.50;;;;;;;15.02;50.91;100712.56;5006877;28;20034;-71
2023/08/04 00:11:24;;;;;;;1.92;0.45;;;;;;;15.11;50.72;100704.09;4983341;28;20037;-71
2023/08/04 00:13:49;;;;;;;5.85;0.95;;;;;;;15.07;50.64;100721.03;4989102;28;20050;-71
2023/08/04 00:16:15;;;;;;;2.55;0.57;;;;;;;15.12;50.43;100718.94;4992622;28;20068;-70
2023/08/04 00:18:40;;;;;;;3.88;0.75;;;;;;;15.11;50.40;100732.22;4991747;28;20092;-70
2023/08/04 00:21:06;;;;;;;4.63;0.63;;;;;;;14.94;50.91;100722.72;4993151;28;20048;-70
2023/08/04 00:23:31;;;;;;;1.98;0.60;;;;;;;14.94;50.95;100728.81;4988178;28;20172;-71
2023/08/04 00:25:57;;;;;;;4.05;0.30;;;;;;;15.01;50.78;100729.28;4992382;28;20056;-70
2023/08/04 00:28:22;;;;;;;6.75;0.40;;;;;;;14.83;51.10;100733.03;4990189;28;20042;-70
2023/08/04 00:30:48;;;;;;;1.27;0.30;;;;;;;14.93;50.83;100736.81;4986957;28;20491;-66
2023/08/04 00:33:14;;;;;;;2.17;0.35;;;;;;;14.84;50.76;100734.75;5005333;28;20424;-67
2023/08/04 00:35:40;;;;;;;1.33;0.32;;;;;;;14.96;50.95;100736.63;4988337;28;20042;-65
2023/08/04 00:38:05;;;;;;;1.48;0.30;;;;;;;14.94;50.97;100735.88;4992905;28;20471;-66
2023/08/04 00:40:31;;;;;;;3.78;0.70;;;;;;;14.94;50.57;100736.69;4987074;28;20161;-67
2023/08/04 00:42:56;;;;;;;5.43;0.50;;;;;;;15.08;50.76;100735.88;4987335;28;20053;-66
2023/08/04 00:45:25;;;;;;;1.50;0.40;;;;;;;14.96;50.54;100739.25;4990730;28;20049;-66
2023/08/04 00:47:52;;;;;;;4.30;0.60;;;;;;;14.97;50.74;100746.22;4989518;28;20041;-66
2023/08/04 00:50:18;;;;;;;12.65;1.10;;;;;;;14.98;50.45;100745.28;4988680;28;20080;-66
2023/08/04 00:52:44;;;;;;;2.65;0.60;;;;;;;14.95;50.48;100753.38;4990640;28;20033;-66
2023/08/04 00:55:12;;;;;;;2.05;0.40;;;;;;;15.11;50.76;100755.91;4991300;28;20049;-66
2023/08/04 00:57:38;;;;;;;3.25;0.60;;;;;;;15.11;50.48;100753.28;4990520;28;20052;-67
2023/08/04 01:00:06;;;;;;;3.90;0.77;;;;;;;15.06;50.56;100756.19;4992682;28;20042;-67
2023/08/04 01:02:32;;;;;;;1.13;0.20;;;;;;;15.05;50.75;100748.38;4988993;28;20083;-66
2023/08/04 01:04:59;;;;;;;4.22;0.65;;;;;;;15.12;50.24;100755.78;4992624;28;20172;-67
2023/08/04 01:07:28;;;;;;;1.90;0.38;;;;;;;15.15;50.21;100755.63;4990806;28;20040;-66
2023/08/04 01:10:07;;;;;;;4.30;0.50;;;;;;;14.99;50.53;100757.47;4992704;28;20044;-65
2023/08/04 01:12:58;;;;;;;3.47;0.77;;;;;;;14.81;50.89;100756.81;4987017;28;20084;-66
2023/08/04 01:15:27;;;;;;;2.42;0.57;;;;;;;15.01;50.66;100755.59;5009059;28;20748;-66
2023/08/04 01:17:57;;;;;;;3.45;0.85;;;;;;;15.05;50.49;100762.38;4986693;28;20053;-67
2023/08/04 01:20:23;;;;;;;7.35;0.40;;;;;;;14.93;50.94;100756.06;4989578;28;20049;-65
2023/08/04 01:22:49;;;;;;;5.50;0.32;;;;;;;14.98;50.87;100753.16;4991938;28;20092;-67
2023/08/04 01:25:15;;;;;;;3.13;0.40;;;;;;;15.03;50.82;100756.34;4995158;28;20054;-66
2023/08/04 01:27:43;;;;;;;4.03;0.50;;;;;;;14.89;51.03;100764.25;4994557;28;20076;-67
2023/08/04 01:30:15;;;;;;;2.55;0.43;;;;;;;14.93;51.09;100755.25;5008466;28;20030;-68
2023/08/04 01:32:42;;;;;;;4.07;0.40;;;;;;;15.00;51.04;100761.81;4989046;28;20026;-68
2023/08/04 01:35:08;;;;;;;3.13;0.40;;;;;;;15.03;50.84;100760.78;4995965;28;20044;-66
2023/08/04 01:37:33;;;;;;;6.40;0.63;;;;;;;14.91;50.97;100765.00;4998153;28;20033;-66
2023/08/04 01:39:59;;;;;;;1.73;0.40;;;;;;;14.98;51.26;100761.06;4993529;28;20032;-66
2023/08/04 01:42:25;;;;;;;6.78;0.40;;;;;;;15.01;51.12;100763.50;4986867;28;20133;-66
2023/08/04 01:44:50;;;;;;;4.30;0.50;;;;;;;14.98;51.27;100761.06;4989565;28;20057;-67
2023/08/04 01:47:16;;;;;;;3.67;0.60;;;;;;;14.97;51.40;100757.59;4989715;28;20503;-67
2023/08/04 01:49:44;;;;;;;2.25;0.38;;;;;;;14.92;51.32;100756.16;5000855;28;20041;-66
2023/08/04 01:52:10;;;;;;;1.42;0.40;;;;;;;14.91;51.44;100757.13;4994197;28;20088;-67
2023/08/04 01:54:35;;;;;;;3.90;0.50;;;;;;;14.90;51.60;100750.13;4982698;28;20042;-66
2023/08/04 01:57:01;;;;;;;3.58;0.40;;;;;;;14.93;51.44;100760.50;4990173;28;20034;-65
2023/08/04 01:59:26;;;;;;;5.53;0.57;;;;;;;14.90;51.83;100755.41;4983646;28;20056;-66
2023/08/04 02:01:51;;;;;;;3.53;0.40;;;;;;;14.83;51.79;100754.09;4992468;28;20051;-69
2023/08/04 02:04:17;;;;;;;8.02;0.80;;;;;;;14.63;52.46;100760.53;4989895;28;20120;-66
2023/08/04 02:06:43;;;;;;;3.72;0.57;;;;;;;14.68;52.45;100758.47;4969652;28;20026;-66
2023/08/04 02:09:08;;;;;;;6.72;0.65;;;;;;;14.63;52.46;100761.38;4988064;28;20217;-66
2023/08/04 02:11:34;;;;;;;5.30;0.45;;;;;;;14.65;52.57;100761.28;5004922;28;21167;-66
2023/08/04 02:14:01;;;;;;;2.83;0.40;;;;;;;14.67;52.43;100762.88;4996395;28;20038;-67
2023/08/04 02:16:27;;;;;;;4.70;0.65;;;;;;;14.50;52.88;100770.91;5009617;28;20040;-67
2023/08/04 02:19:01;;;;;;;2.58;0.50;;;;;;;14.68;52.38;100764.59;4990913;28;20523;-71
2023/08/04 02:21:26;;;;;;;5.35;0.95;;;;;;;14.77;52.06;100760.56;4993397;28;20042;-70
2023/08/04 02:23:52;;;;;;;2.05;0.30;;;;;;;14.72;52.44;100767.88;4991713;28;21291;-70
2023/08/04 02:26:17;;;;;;;1.05;0.40;;;;;;;14.70;52.36;100775.00;5011862;28;20116;-69
2023/08/04 02:28:42;;;;;;;1.98;0.60;;;;;;;14.53;52.47;100774.22;4994133;28;20423;-69
2023/08/04 02:31:08;;;;;;;1.63;0.32;;;;;;;14.58;52.66;100766.06;4996000;28;20203;-70
2023/08/04 02:33:33;;;;;;;4.70;0.30;;;;;;;14.65;52.44;100770.03;4989494;28;22371;-70
2023/08/04 02:36:02;;;;;;;4.50;1.00;;;;;;;14.54;52.73;100769.81;4999417;28;20042;-70
2023/08/04 02:38:28;;;;;;;2.80;0.60;;;;;;;14.59;52.73;100780.94;5007237;28;20065;-65
2023/08/04 02:41:00;;;;;;;5.50;0.32;;;;;;;14.21;53.50;100780.44;4993244;28;20131;-68
2023/08/04 02:43:26;;;;;;;3.28;0.73;;;;;;;14.34;53.16;100781.44;4974302;28;20030;-67
2023/08/04 02:45:51;;;;;;;3.15;0.70;;;;;;;14.39;53.29;100781.19;4996480;28;20493;-68
2023/08/04 02:48:17;;;;;;;2.75;0.45;;;;;;;14.32;53.21;100789.44;4995209;28;20544;-68
2023/08/04 02:50:43;;;;;;;1.40;0.20;;;;;;;14.41;53.04;100789.84;4988994;28;20467;-65
2023/08/04 02:53:09;;;;;;;3.10;0.80;;;;;;;14.36;53.01;100787.47;4996861;28;20048;-67
2023/08/04 02:55:34;;;;;;;3.38;1.33;;;;;;;14.50;52.97;100792.81;5007320;28;20038;-72
2023/08/04 02:58:00;;;;;;;4.57;0.52;;;;;;;14.51;53.07;100802.41;4994644;28;20042;-67
2023/08/04 03:00:26;;;;;;;6.90;1.05;;;;;;;14.46;53.26;100790.47;4989914;28;20092;-66
2023/08/04 03:02:51;;;;;;;4.75;0.50;;;;;;;14.55;52.48;100792.56;4992773;28;20049;-67
2023/08/04 03:05:17;;;;;;;3.72;0.32;;;;;;;14.55;52.78;100792.56;4991391;28;20088;-67
2023/08/04 03:07:42;;;;;;;2.70;0.35;;;;;;;14.68;52.56;100787.41;4990983;28;20037;-67
2023/08/04 03:10:08;;;;;;;3.67;0.28;;;;;;;14.74;52.39;100787.88;4994761;28;20357;-67
2023/08/04 03:12:33;;;;;;;2.33;0.30;;;;;;;14.76;52.51;100795.69;4987373;28;20057;-67
2023/08/04 03:14:59;;;;;;;2.42;0.52;;;;;;;14.80;52.29;100801.63;4993913;28;20061;-67
2023/08/04 03:17:24;;;;;;;5.63;0.52;;;;;;;14.84;51.89;100803.16;4989933;28;20095;-67
2023/08/04 03:19:50;;;;;;;1.27;0.30;;;;;;;14.84;52.34;100805.78;4992064;28;20065;-66
2023/08/04 03:22:15;;;;;;;2.58;0.45;;;;;;;14.84;52.28;100803.16;4990594;28;20080;-67
2023/08/04 03:24:41;;;;;;;3.22;0.60;;;;;;;14.86;52.29;100809.19;4992397;28;20604;-67
2023/08/04 03:27:06;;;;;;;4.97;0.40;;;;;;;14.76;52.27;100807.06;4994340;28;20045;-67
2023/08/04 03:29:32;;;;;;;5.00;0.50;;;;;;;14.73;52.33;100811.69;5003871;28;20049;-68
2023/08/04 03:31:57;;;;;;;1.48;0.40;;;;;;;14.76;52.50;100811.47;4994360;28;20048;-67
2023/08/04 03:34:23;;;;;;;2.47;0.40;;;;;;;14.69;52.57;100818.06;4991768;28;20041;-67
2023/08/04 03:36:48;;;;;;;2.22;0.30;;;;;;;14.75;52.65;100821.16;4990227;28;20128;-67
2023/08/04 03:39:13;;;;;;;5.28;0.68;;;;;;;14.71;52.81;100827.53;4994392;28;20044;-66
2023/08/04 03:41:39;;;;;;;2.15;0.20;;;;;;;14.41;53.49;100831.94;4990173;28;20049;-67
2023/08/04 03:44:04;;;;;;;1.25;0.20;;;;;;;14.36;53.47;100827.75;4991908;28;20506;-68
2023/08/04 03:46:30;;;;;;;3.90;0.60;;;;;;;14.51;53.41;100835.75;4994218;28;20044;-67
2023/08/04 03:48:55;;;;;;;1.65;0.30;;;;;;;14.21;53.89;100839.16;4989496;28;20037;-68
2023/08/04 03:51:22;;;;;;;3.30;0.93;;;;;;;13.79;55.13;100845.81;4992660;28;20488;-67
2023/08/04 03:53:48;;;;;;;2.85;0.25;;;;;;;13.82;55.44;100850.91;4987476;28;20519;-66
2023/08/04 03:56:13;;;;;;;2.60;0.28;;;;;;;14.03;55.27;100850.66;4993573;28;20042;-66
2023/08/04 03:58:39;;;;;;;2.67;0.20;;;;;;;13.91;55.76;100855.66;4989699;28;20053;-68
2023/08/04 04:01:04;;;;;;;5.25;0.30;;;;;;;13.94;55.84;100859.88;4994460;28;20040;-69
2023/08/04 04:03:30;;;;;;;3.05;0.22;;;;;;;13.84;56.70;100862.19;4989587;28;20053;-67
2023/08/04 04:05:55;;;;;;;4.25;0.50;;;;;;;13.82;57.06;100861.41;4993257;28;20030;-68
2023/08/04 04:08:21;;;;;;;1.50;0.20;;;;;;;14.06;56.49;100858.41;4994142;28;20225;-66
2023/08/04 04:10:48;;;;;;;2.50;0.30;;;;;;;14.10;56.57;100870.44;4978162;28;20067;-67
2023/08/04 04:13:14;;;;;;;2.08;0.20;;;;;;;14.08;56.75;100873.13;4987349;28;20044;-66
2023/08/04 04:15:39;;;;;;;6.55;0.20;;;;;;;13.86;57.30;100876.09;4990228;28;20443;-67
2023/08/04 04:18:04;;;;;;;5.28;0.20;;;;;;;13.91;57.53;100881.09;4974112;28;20057;-67
2023/08/04 04:20:30;;;;;;;4.03;0.22;;;;;;;14.14;56.82;100883.31;4993009;28;20190;-66
2023/08/04 04:22:55;;;;;;;0.70;0.20;;;;;;;14.29;56.56;100881.59;4990458;28;20134;-68
2023/08/04 04:25:21;;;;;;;2.38;0.30;;;;;;;14.26;56.46;100876.53;4991664;28;20096;-67
2023/08/04 04:27:46;;;;;;;3.13;0.35;;;;;;;14.28;56.26;100884.34;4990351;28;20081;-68
2023/08/04 04:30:12;;;;;;;4.00;0.30;;;;;;;14.36;56.19;100885.59;4992930;28;20037;-67
2023/08/04 04:32:37;;;;;;;3.53;0.17;;;;;;;14.33;56.10;100893.66;4989889;28;20044;-66
2023/08/04 04:35:03;;;;;;;2.33;0.20;;;;;;;14.40;56.10;100893.31;4990752;28;20492;-67
2023/08/04 04:37:28;;;;;;;2.00;0.60;;;;;;;14.50;56.46;100897.16;4990393;28;20056;-66
2023/08/04 04:39:54;;;;;;;1.98;0.30;;;;;;;14.43;55.61;100896.63;4991414;28;20404;-68
2023/08/04 04:42:19;;;;;;;2.88;0.20;;;;;;;14.35;56.22;100893.59;4990596;28;20063;-67
2023/08/04 04:44:45;;;;;;;2.53;0.28;;;;;;;14.55;55.67;100892.50;5004708;28;20037;-70
2023/08/04 04:47:13;;;;;;;3.28;0.30;;;;;;;14.56;55.71;100894.19;4992725;28;20061;-71
2023/08/04 04:49:38;;;;;;;1.98;0.20;;;;;;;14.36;55.76;100892.63;4984915;28;20141;-71
2023/08/04 04:52:05;;;;;;;1.33;0.50;;;;;;;14.50;56.04;100899.78;4992770;28;20034;-70
2023/08/04 04:54:31;;;;;;;0.50;0.20;;;;;;;14.60;56.23;100905.38;5006601;28;20046;-70
2023/08/04 04:56:56;;;;;;;1.33;0.20;;;;;;;14.63;55.72;100900.78;4988505;28;20036;-65
2023/08/04 04:59:22;;;;;;;2.88;1.00;;;;;;;14.55;55.31;100908.28;4992173;28;20033;-65
2023/08/04 05:01:47;;;;;;;2.03;0.30;;;;;;;14.48;55.67;100909.56;4988407;28;20492;-66
2023/08/04 05:04:13;;;;;;;2.17;0.57;;;;;;;14.46;55.92;100914.91;4991436;28;20448;-67
2023/08/04 05:06:38;;;;;;;2.38;0.20;;;;;;;14.17;56.31;100919.09;4987261;28;20034;-66
2023/08/04 05:09:04;;;;;;;1.55;0.20;;;;;;;14.35;56.28;100919.88;4993544;28;20520;-66
2023/08/04 05:11:30;;;;;;;3.28;0.30;;;;;;;14.22;56.28;100930.19;4989100;28;20105;-64
2023/08/04 05:13:55;;;;;;;1.95;0.20;;;;;;;14.24;56.19;100925.72;4984638;28;20095;-67
2023/08/04 05:16:21;;;;;;;0.55;0.17;;;;;;;14.04;56.51;100923.31;4990188;28;20099;-68
2023/08/04 05:18:47;;;;;;;0.85;0.20;;;;;;;14.39;55.91;100917.91;4990728;28;20110;-67
2023/08/04 05:21:12;;;;;;;4.15;0.20;;;;;;;14.39;55.65;100920.53;4993464;28;20546;-68
2023/08/04 05:23:38;;;;;;;0.60;0.20;;;;;;;14.47;55.27;100931.53;4986989;28;20042;-67
2023/08/04 05:26:03;;;;;;;0.70;0.10;;;;;;;14.38;55.26;100932.84;4992830;28;20040;-67
2023/08/04 05:28:32;;;;;;;3.47;0.17;;;;;;;14.56;55.41;100941.53;4989014;28;20064;-69
2023/08/04 05:31:00;;;;;;;2.92;0.10;;;;;;;14.58;54.96;100944.06;4988027;28;20037;-68
2023/08/04 05:33:27;;;;;;;0.50;0.17;;;;;;;14.79;54.30;100936.75;4987997;28;20038;-67
2023/08/04 05:35:53;;;;;;;0.77;0.10;;;;;;;14.65;55.03;100946.25;4990174;28;21757;-67
2023/08/04 05:38:28;;;;;;;1.77;0.10;;;;;;;14.82;54.01;100947.97;4991827;28;20128;-68
2023/08/04 05:40:54;;;;;;;0.82;0.17;;;;;;;14.83;54.48;100954.91;4987341;28;20034;-68
2023/08/04 05:43:19;;;;;;;1.33;0.10;;;;;;;14.95;53.84;100950.75;4986460;28;20112;-68
2023/08/04 05:45:47;;;;;;;1.58;0.15;;;;;;;14.81;54.00;100955.94;4989286;28;20038;-68
2023/08/04 05:48:13;;;;;;;3.75;0.20;;;;;;;14.47;54.60;100957.81;5009056;28;20316;-69
2023/08/04 05:50:38;;;;;;;0.63;0.20;;;;;;;14.71;54.49;100958.25;4976819;28;20040;-69
2023/08/04 05:53:04;;;;;;;0.93;0.10;;;;;;;14.89;54.20;100958.97;4993489;28;20041;-69
2023/08/04 05:55:29;;;;;;;2.15;0.60;;;;;;;15.02;53.79;100957.34;4976079;28;20040;-67
2023/08/04 05:57:56;;;;;;;2.72;0.20;;;;;;;15.13;53.52;100969.88;4989326;28;20034;-67
2023/08/04 06:00:21;;;;;;;0.82;0.10;;;;;;;15.18;53.30;100968.66;4988073;28;20451;-66
2023/08/04 06:02:49;;;;;;;1.17;0.15;;;;;;;15.22;53.41;100966.75;4987086;28;20125;-70
2023/08/04 06:05:15;;;;;;;1.25;0.30;;;;;;;15.30;53.27;100975.03;4997932;28;20436;-68
2023/08/04 06:07:41;;;;;;;3.03;0.28;;;;;;;15.44;52.73;100973.38;4994831;28;20091;-69
2023/08/04 06:10:07;;;;;;;0.57;0.10;;;;;;;15.56;52.80;100968.22;5011004;28;20037;-69
2023/08/04 06:12:33;;;;;;;0.60;0.10;;;;;;;15.46;52.54;100974.13;4994991;28;20407;-70
2023/08/04 06:14:58;;;;;;;3.58;0.63;;;;;;;15.40;52.74;100969.25;4995085;28;20057;-69
2023/08/04 06:17:24;;;;;;;3.20;0.50;;;;;;;15.33;53.20;100979.31;4993422;28;20496;-68
2023/08/04 06:19:49;;;;;;;2.90;0.22;;;;;;;15.22;53.60;100982.56;4988387;28;20439;-69
2023/08/04 06:22:15;;;;;;;3.00;0.30;;;;;;;15.34;53.26;100991.50;4987535;28;20117;-69
2023/08/04 06:24:41;;;;;;;4.00;0.35;;;;;;;15.08;53.76;100988.59;4996524;28;20045;-69
2023/08/04 06:27:07;;;;;;;3.40;0.35;;;;;;;14.82;54.13;100990.06;4993867;28;20042;-66
2023/08/04 06:29:34;;;;;;;3.08;0.38;;;;;;;15.36;53.76;100992.28;4990237;28;20083;-65
2023/08/04 06:32:01;;;;;;;1.58;0.30;;;;;;;15.65;53.13;100990.56;5011690;28;20412;-65
2023/08/04 06:34:27;;;;;;;3.08;0.20;;;;;;;15.71;52.81;100997.25;4994754;28;20046;-67
2023/08/04 06:36:53;;;;;;;1.88;0.20;;;;;;;15.69;52.25;101002.59;4989354;28;20068;-67
2023/08/04 06:39:18;;;;;;;2.28;0.17;;;;;;;15.97;52.47;101003.56;5008025;28;20033;-66
2023/08/04 06:41:47;;;;;;;4.30;0.20;;;;;;;15.71;52.90;101016.53;4992659;28;20104;-65
2023/08/04 06:44:13;;;;;;;0.50;0.10;;;;;;;15.97;52.86;101007.06;4995899;28;20244;-67
2023/08/04 06:46:38;;;;;;;2.83;0.30;;;;;;;15.82;52.63;101018.53;4988629;28;20277;-67
2023/08/04 06:49:04;;;;;;;4.85;0.30;;;;;;;15.71;53.27;101011.28;4991330;28;20038;-69
2023/08/04 06:51:29;;;;;;;3.70;0.43;;;;;;;15.56;53.58;101018.28;4992197;28;20594;-68
2023/08/04 06:53:55;;;;;;;1.35;0.30;;;;;;;15.27;54.48;101025.25;5004732;28;20399;-68
2023/08/04 06:56:20;;;;;;;2.63;0.40;;;;;;;15.35;54.30;101019.56;4975406;28;20556;-67
2023/08/04 06:58:46;;;;;;;0.88;0.30;;;;;;;15.21;54.65;101027.34;4991432;28;20042;-66
2023/08/04 07:01:12;;;;;;;1.95;0.30;;;;;;;15.77;53.94;101025.84;4993295;28;20379;-68
2023/08/04 07:03:37;;;;;;;3.03;0.25;;;;;;;15.93;52.95;101026.66;4987335;28;20491;-67
2023/08/04 07:06:03;;;;;;;4.82;0.47;;;;;;;16.07;52.98;101027.63;4993853;28;20037;-67
2023/08/04 07:08:28;;;;;;;0.75;0.20;;;;;;;16.43;50.92;101024.50;4990509;28;20046;-67
2023/08/04 07:10:54;;;;;;;4.30;0.40;;;;;;;16.67;50.66;101024.75;4988646;28;20120;-68
2023/08/04 07:13:20;;;;;;;5.07;0.52;;;;;;;17.28;49.54;101033.16;4992435;28;20052;-68
2023/08/04 07:15:59;;;;;;;3.22;0.40;;;;;;;17.43;48.56;101036.59;4992783;28;20032;-68
2023/08/04 07:18:25;;;;;;;1.75;0.20;;;;;;;18.16;46.55;101024.59;5007886;28;20049;-68
2023/08/04 07:20:51;;;;;;;3.78;0.40;;;;;;;18.25;45.06;101037.22;5005893;28;20450;-68
2023/08/04 07:23:17;;;;;;;2.25;0.30;;;;;;;18.73;44.37;101036.50;4988038;28;20041;-67
2023/08/04 07:25:43;;;;;;;1.80;0.32;;;;;;;19.09;43.98;101035.66;4992146;28;20038;-67
2023/08/04 07:28:09;;;;;;;1.35;0.25;;;;;;;19.25;43.01;101036.19;4991735;28;20363;-68
2023/08/04 07:30:37;;;;;;;1.77;0.57;;;;;;;18.51;44.08;101039.84;4986819;28;20115;-69
2023/08/04 07:33:06;;;;;;;0.50;0.22;;;;;;;17.74;44.90;101042.47;5003008;28;20054;-69
2023/08/04 07:35:32;;;;;;;2.55;0.28;;;;;;;17.72;45.52;101047.03;4974242;28;20034;-67
2023/08/04 07:37:58;;;;;;;1.52;0.40;;;;;;;17.89;44.96;101041.44;5008053;28;20042;-69
2023/08/04 07:40:24;;;;;;;1.60;0.50;;;;;;;17.97;44.56;101046.22;4990812;28;20080;-67
2023/08/04 07:42:50;;;;;;;2.17;0.32;;;;;;;18.21;43.97;101049.00;4992593;28;20262;-70
2023/08/04 07:45:15;;;;;;;1.85;0.20;;;;;;;18.80;43.55;101059.78;4992348;28;20219;-69
2023/08/04 07:47:41;;;;;;;4.22;0.40;;;;;;;18.60;42.79;101050.59;4989918;28;20621;-69
2023/08/04 07:50:07;;;;;;;3.80;0.30;;;;;;;18.53;42.73;101057.31;4990224;28;20069;-69
2023/08/04 07:52:33;;;;;;;3.22;0.35;;;;;;;18.86;42.55;101056.69;5001598;28;20041;-70
2023/08/04 07:54:58;;;;;;;1.83;0.30;;;;;;;18.50;42.52;101064.59;4989051;28;20546;-69
2023/08/04 07:57:24;;;;;;;2.45;1.40;;;;;;;18.69;42.60;101060.53;5006571;28;20037;-70
2023/08/04 07:59:50;;;;;;;4.43;0.93;;;;;;;18.61;43.23;101057.63;4992787;28;20045;-69
2023/08/04 08:02:16;;;;;;;2.40;0.90;;;;;;;18.63;43.17;101065.41;4989891;28;20774;-69
2023/08/04 08:04:41;;;;;;;2.97;0.60;;;;;;;18.26;43.63;101057.44;4993707;28;20043;-69
2023/08/04 08:07:07;;;;;;;1.70;1.05;;;;;;;18.22;44.02;101062.09;4990401;28;20113;-69
2023/08/04 08:09:33;;;;;;;2.90;0.30;;;;;;;18.16;44.14;101057.22;4987675;28;20453;-69
2023/08/04 08:12:01;;;;;;;3.92;0.38;;;;;;;18.20;44.26;101064.00;4988501;28;20041;-70
2023/08/04 08:14:26;;;;;;;4.47;0.70;;;;;;;18.14;44.43;101060.91;4988336;28;20396;-70
2023/08/04 08:16:52;;;;;;;1.75;0.40;;;;;;;18.08;45.09;101059.53;4988548;28;20116;-70
2023/08/04 08:19:17;;;;;;;4.35;0.40;;;;;;;17.60;45.53;101065.44;5002855;28;20052;-70
2023/08/04 08:21:43;;;;;;;3.60;0.90;;;;;;;17.88;45.87;101068.84;4991001;28;20124;-69
2023/08/04 08:24:09;;;;;;;1.95;0.28;;;;;;;17.99;44.97;101071.59;4989081;28;20088;-67
2023/08/04 08:26:35;;;;;;;4.57;0.43;;;;;;;18.00;44.38;101077.72;4984618;28;20088;-70
2023/08/04 08:29:02;;;;;;;2.00;0.30;;;;;;;17.64;44.59;101074.81;4991047;28;20631;-70
2023/08/04 08:31:27;;;;;;;1.95;0.30;;;;;;;17.92;44.80;101075.63;4988654;28;20063;-70
2023/08/04 08:33:53;;;;;;;5.93;1.38;;;;;;;17.34;45.62;101082.13;4985873;28;20128;-70
2023/08/04 08:36:19;;;;;;;6.25;0.50;;;;;;;18.02;45.18;101081.13;4989930;28;20351;-70
2023/08/04 08:38:45;;;;;;;1.38;0.60;;;;;;;18.06;45.01;101083.44;4997907;28;20496;-70
2023/08/04 08:41:11;;;;;;;7.25;0.50;;;;;;;18.73;44.20;101090.28;4990328;28;20066;-70
2023/08/04 08:43:37;;;;;;;8.15;0.57;;;;;;;19.14;43.01;101091.78;4986608;28;20042;-70
2023/08/04 08:46:03;;;;;;;6.47;0.73;;;;;;;19.12;42.52;101085.75;4998126;28;20048;-70
2023/08/04 08:48:37;;;;;;;3.80;0.20;;;;;;;19.01;42.85;101089.19;4987656;28;20076;-70
2023/08/04 08:51:07;;;;;;;2.08;0.32;;;;;;;19.02;42.50;101087.38;4986162;28;20488;-70
2023/08/04 08:53:33;;;;;;;3.65;0.47;;;;;;;18.35;43.20;101103.59;4985571;28;20211;-65
2023/08/04 08:56:00;;;;;;;6.38;1.02;;;;;;;18.28;43.40;101092.59;4990430;28;20038;-68
2023/08/04 08:58:29;;;;;;;5.88;0.73;;;;;;;18.57;43.71;101098.47;4985709;28;20053;-70
2023/08/04 09:00:55;;;;;;;2.70;1.00;;;;;;;18.69;43.23;101104.69;4988507;28;20443;-69
2023/08/04 09:03:21;;;;;;;4.13;0.40;;;;;;;18.85;43.17;101102.66;4983565;28;20353;-69
2023/08/04 09:05:46;;;;;;;2.40;0.35;;;;;;;19.19;43.17;101102.91;4986202;28;20411;-68
2023/08/04 09:08:12;;;;;;;6.90;0.52;;;;;;;19.77;41.29;101111.03;4989805;28;20042;-68
2023/08/04 09:10:38;;;;;;;4.47;0.57;;;;;;;19.93;39.96;101110.69;4983395;28;20277;-67
2023/08/04 09:13:11;;;;;;;6.97;0.43;;;;;;;19.46;41.30;101110.63;4986334;28;20289;-67
2023/08/04 09:15:52;;;;;;;1.83;0.30;;;;;;;19.00;40.82;101107.84;4985814;28;20099;-67
2023/08/04 09:18:37;;;;;;;3.70;0.40;;;;;;;18.98;40.66;101107.09;4983544;28;20038;-67
2023/08/04 09:21:11;;;;;;;1.75;0.20;;;;;;;19.10;39.20;101106.22;5001955;28;20045;-70
2023/08/04 09:23:47;;;;;;;3.58;0.38;;;;;;;19.55;38.98;101106.47;4985938;28;20038;-69
2023/08/04 09:26:14;;;;;;;1.20;0.15;;;;;;;19.32;39.76;101113.44;4985496;28;20034;-69
2023/08/04 09:28:40;;;;;;;1.38;0.20;;;;;;;19.94;38.22;101109.72;4985355;28;20065;-67
2023/08/04 09:31:11;;;;;;;5.10;0.45;;;;;;;20.20;38.25;101109.53;4988762;28;20153;-67
2023/08/04 09:33:41;;;;;;;2.63;0.40;;;;;;;20.59;37.81;101107.41;4987680;28;20049;-68
2023/08/04 09:36:12;;;;;;;2.42;0.40;;;;;;;20.49;36.93;101108.13;4990269;28;20492;-68
2023/08/04 09:38:39;;;;;;;7.20;0.77;;;;;;;20.50;36.98;101115.13;4964778;28;20061;-68
2023/08/04 09:41:06;;;;;;;4.30;0.40;;;;;;;20.28;37.14;101115.09;4989245;28;20072;-71
2023/08/04 09:43:31;;;;;;;0.98;0.20;;;;;;;20.51;36.99;101116.00;4983383;28;20138;-66
2023/08/04 09:45:59;;;;;;;2.42;0.22;;;;;;;20.98;36.71;101118.53;4987569;28;20057;-67
2023/08/04 09:48:26;;;;;;;4.03;0.35;;;;;;;21.22;36.25;101113.00;4997969;28;20033;-67
2023/08/04 09:51:11;;;;;;;4.70;0.40;;;;;;;22.49;35.79;101117.44;4981583;28;20034;-67
2023/08/04 09:53:47;;;;;;;4.55;0.55;;;;;;;22.37;34.73;101114.03;4985633;28;20074;-69
2023/08/04 09:56:20;;;;;;;2.47;0.22;;;;;;;22.93;32.87;101110.88;4985559;28;20048;-66
2023/08/04 09:58:48;;;;;;;3.33;0.77;;;;;;;23.56;31.48;101109.69;4969892;28;20065;-66
2023/08/04 10:01:14;;;;;;;3.75;0.20;;;;;;;24.12;31.06;101113.44;4980457;28;20045;-67
2023/08/04 10:03:45;;;;;;;3.80;0.30;;;;;;;22.70;33.13;101120.91;4987628;28;20037;-67
2023/08/04 10:06:11;;;;;;;1.63;0.28;;;;;;;21.23;35.47;101125.34;4985947;28;20455;-66
2023/08/04 10:08:40;;;;;;;7.32;0.82;;;;;;;20.14;38.16;101129.41;4983121;28;20045;-67
2023/08/04 10:11:07;;;;;;;3.45;0.50;;;;;;;19.73;38.00;101136.06;4989122;28;20065;-67
2023/08/04 10:13:41;;;;;;;4.05;0.40;;;;;;;19.00;38.45;101139.63;4982630;28;20045;-67
2023/08/04 10:16:09;;;;;;;4.75;0.20;;;;;;;18.62;39.17;101135.22;4987215;28;20041;-69
2023/08/04 10:18:51;;;;;;;3.30;0.30;;;;;;;18.80;39.24;101130.41;4984379;28;21732;-67
2023/08/04 10:21:22;;;;;;;3.88;0.38;;;;;;;19.40;38.81;101134.09;4982493;28;20030;-65
2023/08/04 10:23:48;;;;;;;2.30;0.43;;;;;;;20.79;36.86;101122.59;4984306;28;20367;-67
2023/08/04 10:26:14;;;;;;;3.63;0.28;;;;;;;20.93;36.05;101133.00;4987630;28;20154;-68
2023/08/04 10:28:59;;;;;;;1.50;0.40;;;;;;;20.04;36.21;101144.38;4969085;28;20041;-68
2023/08/04 10:31:41;;;;;;;1.20;0.13;;;;;;;20.87;35.18;101127.34;4985958;28;20087;-66
2023/08/04 10:34:28;;;;;;;2.22;0.10;;;;;;;21.72;34.00;101119.50;4991579;28;20344;-68
2023/08/04 10:37:14;;;;;;;2.85;0.10;;;;;;;22.11;31.76;101125.09;4989863;28;20099;-66
2023/08/04 10:39:44;;;;;;;0.82;0.40;;;;;;;21.95;32.53;101135.31;5000435;28;20037;-65
2023/08/04 10:42:14;;;;;;;1.13;0.30;;;;;;;21.52;33.98;101138.94;4993077;28;20067;-66
2023/08/04 10:45:07;;;;;;;0.60;0.10;;;;;;;21.43;34.24;101144.97;4990805;28;20494;-68
2023/08/04 10:47:52;;;;;;;4.40;0.43;;;;;;;20.72;35.07;101153.28;4999179;28;20122;-69
2023/08/04 10:50:21;;;;;;;1.77;0.43;;;;;;;20.40;36.42;101156.66;4991174;28;20496;-71
2023/08/04 10:52:47;;;;;;;1.30;0.10;;;;;;;20.17;37.24;101154.88;4990828;28;20049;-72
2023/08/04 10:55:14;;;;;;;2.20;0.35;;;;;;;20.36;37.02;101157.84;4991680;28;20025;-67
2023/08/04 10:57:41;;;;;;;3.50;1.00;;;;;;;20.45;36.95;101159.78;4969799;28;20591;-66
2023/08/04 11:00:11;;;;;;;2.88;0.20;;;;;;;19.85;37.72;101169.63;4975103;28;20162;-64
2023/08/04 11:02:38;;;;;;;3.75;0.13;;;;;;;19.29;38.50;101175.44;4984465;28;20249;-66
2023/08/04 11:05:07;;;;;;;1.60;0.10;;;;;;;19.36;38.64;101167.91;4989319;28;20044;-65
2023/08/04 11:07:35;;;;;;;2.97;0.20;;;;;;;20.15;36.94;101173.59;4986934;28;21314;-65
2023/08/04 11:10:05;;;;;;;0.75;0.10;;;;;;;20.53;36.96;101172.47;5005085;28;20056;-68
2023/08/04 11:12:33;;;;;;;0.68;0.17;;;;;;;20.41;37.44;101174.25;4990184;28;20115;-66
2023/08/04 11:14:58;;;;;;;1.05;0.20;;;;;;;19.43;38.67;101182.41;4991592;28;20044;-68
2023/08/04 11:17:24;;;;;;;3.03;0.30;;;;;;;19.18;40.58;101179.84;4988189;28;20029;-69
2023/08/04 11:19:50;;;;;;;4.75;0.22;;;;;;;19.93;39.30;101190.28;4988398;28;20437;-65
2023/08/04 11:22:17;;;;;;;3.97;0.32;;;;;;;19.73;39.77;101189.09;4986218;28;20056;-65
2023/08/04 11:24:43;;;;;;;5.90;0.20;;;;;;;19.67;39.46;101198.34;5002525;28;20084;-65